createdAt,value
2019-06-07T00:00:07.181Z,23.435974
2019-06-07T00:01:05.777Z,23.446045
2019-06-07T00:02:04.812Z,23.435974
2019-06-07T00:03:06.553Z,23.415833
2019-06-07T00:04:05.130Z,23.405762
2019-06-07T00:05:06.022Z,23.38562
2019-06-07T00:06:05.123Z,23.38562
2019-06-07T00:07:05.470Z,23.375549
2019-06-07T00:08:08.191Z,23.365479
2019-06-07T00:09:05.556Z,23.38562
2019-06-07T00:10:05.317Z,23.375549
2019-06-07T00:11:05.575Z,23.375549
2019-06-07T00:12:05.731Z,23.365479
2019-06-07T00:13:05.605Z,23.365479
2019-06-07T00:14:06.840Z,23.365479
2019-06-07T00:15:06.287Z,23.365479
2019-06-07T00:16:07.004Z,23.335266
2019-06-07T00:17:06.089Z,23.335266
2019-06-07T00:18:06.493Z,23.335266
2019-06-07T00:19:06.108Z,23.315125
2019-06-07T00:20:06.402Z,23.305054
2019-06-07T00:21:06.330Z,23.294983
2019-06-07T00:22:16.381Z,23.294983
2019-06-07T00:23:06.790Z,23.264771
2019-06-07T00:24:06.840Z,23.294983
2019-06-07T00:25:07.212Z,23.264771
2019-06-07T00:26:06.971Z,23.2547
2019-06-07T00:27:07.070Z,23.234558
2019-06-07T00:28:07.157Z,23.234558
2019-06-07T00:29:07.443Z,23.234558
2019-06-07T00:30:30.983Z,23.234558
2019-06-07T00:31:07.576Z,23.224487
2019-06-07T00:32:07.745Z,23.214417
2019-06-07T00:33:07.986Z,23.214417
2019-06-07T00:34:07.863Z,23.194275
2019-06-07T00:35:07.945Z,23.194275
2019-06-07T00:36:08.263Z,23.184204
2019-06-07T00:37:08.199Z,23.184204
2019-06-07T00:38:08.291Z,23.164062
2019-06-07T00:39:08.616Z,23.184204
2019-06-07T00:40:20.473Z,23.164062
2019-06-07T00:41:08.697Z,23.184204
2019-06-07T00:42:08.917Z,23.153992
2019-06-07T00:43:09.639Z,23.153992
2019-06-07T00:44:08.988Z,23.164062
2019-06-07T00:45:09.213Z,23.143921
2019-06-07T00:46:09.429Z,23.123779
2019-06-07T00:47:09.342Z,23.143921
2019-06-07T00:48:10.501Z,23.123779
2019-06-07T00:49:09.842Z,23.123779
2019-06-07T00:50:09.776Z,23.113708
2019-06-07T00:51:09.971Z,23.123779
2019-06-07T00:52:09.962Z,23.093567
2019-06-07T00:53:21.451Z,23.093567
2019-06-07T00:54:10.316Z,23.073425
2019-06-07T00:55:10.558Z,23.093567
2019-06-07T00:56:10.370Z,23.063354
2019-06-07T00:57:10.645Z,23.063354
2019-06-07T00:58:10.529Z,23.063354
2019-06-07T00:59:13.223Z,23.043213
2019-06-07T01:00:10.858Z,23.043213
2019-06-07T01:01:11.060Z,23.013
2019-06-07T01:02:11.090Z,23.013
2019-06-07T01:03:11.358Z,23.013
2019-06-07T01:04:11.367Z,23.00293
2019-06-07T01:05:11.754Z,23.013
2019-06-07T01:06:11.474Z,23.00293
2019-06-07T01:07:11.645Z,23.013
2019-06-07T01:08:11.725Z,23.00293
2019-06-07T01:09:11.770Z,22.992859
2019-06-07T01:10:12.036Z,22.972717
2019-06-07T01:11:12.076Z,22.972717
2019-06-07T01:12:12.303Z,22.962646
2019-06-07T01:13:12.453Z,22.962646
2019-06-07T01:14:12.487Z,22.932434
2019-06-07T01:15:12.782Z,22.962646
2019-06-07T01:16:12.422Z,22.962646
2019-06-07T01:17:23.223Z,22.942505
2019-06-07T01:18:34.443Z,22.932434
2019-06-07T01:19:12.674Z,22.932434
2019-06-07T01:20:12.810Z,22.912292
2019-06-07T01:21:13.017Z,22.892151
2019-06-07T01:22:13.325Z,22.912292
2019-06-07T01:23:54.161Z,22.892151
2019-06-07T01:24:14.104Z,22.912292
2019-06-07T01:25:14.159Z,22.892151
2019-06-07T01:26:14.545Z,22.861938
2019-06-07T01:27:14.225Z,22.88208
2019-06-07T01:28:14.576Z,22.861938
2019-06-07T01:29:14.907Z,22.88208
2019-06-07T01:30:14.766Z,22.861938
2019-06-07T01:31:14.940Z,22.851868
2019-06-07T01:32:14.722Z,22.841797
2019-06-07T01:33:14.748Z,22.821655
2019-06-07T01:34:14.921Z,22.821655
2019-06-07T01:35:15.006Z,22.821655
2019-06-07T01:36:15.203Z,22.811584
2019-06-07T01:37:15.109Z,22.791443
2019-06-07T01:38:15.126Z,22.781372
2019-06-07T01:39:15.161Z,22.791443
2019-06-07T01:40:15.261Z,22.76123
2019-06-07T01:41:15.242Z,22.76123
2019-06-07T01:42:15.510Z,22.75116
2019-06-07T01:43:15.373Z,22.75116
2019-06-07T01:44:15.612Z,22.720947
2019-06-07T01:45:15.588Z,22.720947
2019-06-07T01:46:14.715Z,22.700806
2019-06-07T01:47:15.968Z,22.700806
2019-06-07T01:48:15.262Z,22.720947
2019-06-07T01:49:15.973Z,22.690735
2019-06-07T01:50:15.256Z,22.670593
2019-06-07T01:51:16.261Z,22.690735
2019-06-07T01:52:15.303Z,22.670593
2019-06-07T01:53:16.668Z,22.670593
2019-06-07T01:55:16.713Z,22.640381
2019-06-07T01:56:15.939Z,22.640381
2019-06-07T01:57:30.875Z,22.63031
2019-06-07T01:58:15.856Z,22.640381
2019-06-07T01:59:16.117Z,22.640381
2019-06-07T02:00:16.114Z,22.63031
2019-06-07T02:01:16.273Z,22.610168
2019-06-07T02:02:16.422Z,22.63031
2019-06-07T02:03:16.624Z,22.610168
2019-06-07T02:04:16.940Z,22.600098
2019-06-07T02:05:16.691Z,22.610168
2019-06-07T02:06:16.962Z,22.600098
2019-06-07T02:07:17.174Z,22.590027
2019-06-07T02:08:17.462Z,22.590027
2019-06-07T02:09:17.238Z,22.600098
2019-06-07T02:10:17.528Z,22.590027
2019-06-07T02:11:17.989Z,22.569885
2019-06-07T02:12:27.822Z,22.569885
2019-06-07T02:13:17.647Z,22.569885
2019-06-07T02:14:17.919Z,22.559814
2019-06-07T02:15:18.215Z,22.569885
2019-06-07T02:16:18.121Z,22.559814
2019-06-07T02:17:18.503Z,22.569885
2019-06-07T02:18:19.170Z,22.569885
2019-06-07T02:19:18.308Z,22.569885
2019-06-07T02:20:18.535Z,22.569885
2019-06-07T02:21:18.757Z,22.569885
2019-06-07T02:22:18.822Z,22.590027
2019-06-07T02:23:18.876Z,22.569885
2019-06-07T02:24:19.058Z,22.559814
2019-06-07T02:26:19.075Z,22.569885
2019-06-07T02:27:19.222Z,22.569885
2019-06-07T02:28:29.696Z,22.590027
2019-06-07T02:29:19.352Z,22.590027
2019-06-07T02:31:19.778Z,22.569885
2019-06-07T02:32:19.941Z,22.559814
2019-06-07T02:33:20.177Z,22.559814
2019-06-07T02:34:19.908Z,22.539673
2019-06-07T02:35:20.119Z,22.539673
2019-06-07T02:36:20.278Z,22.539673
2019-06-07T02:37:20.158Z,22.519531
2019-06-07T02:38:20.452Z,22.50946
2019-06-07T02:39:20.347Z,22.489319
2019-06-07T02:40:20.464Z,22.50946
2019-06-07T02:41:20.722Z,22.489319
2019-06-07T02:42:21.058Z,22.479248
2019-06-07T02:43:20.749Z,22.459106
2019-06-07T02:44:21.048Z,22.459106
2019-06-07T02:45:21.037Z,22.449036
2019-06-07T02:46:26.150Z,22.449036
2019-06-07T02:47:21.235Z,22.438965
2019-06-07T02:48:21.425Z,22.459106
2019-06-07T02:49:21.773Z,22.438965
2019-06-07T02:50:21.441Z,22.438965
2019-06-07T02:51:21.823Z,22.438965
2019-06-07T02:52:22.022Z,22.418823
2019-06-07T02:53:21.936Z,22.408752
2019-06-07T02:54:22.165Z,22.408752
2019-06-07T02:55:22.452Z,22.408752
2019-06-07T02:56:50.618Z,22.418823
2019-06-07T02:57:22.721Z,22.388611
2019-06-07T02:58:22.794Z,22.388611
2019-06-07T02:59:46.698Z,22.37854
2019-06-07T03:00:45.431Z,22.37854
2019-06-07T03:01:23.016Z,22.37854
2019-06-07T03:02:23.366Z,22.358398
2019-06-07T03:03:23.212Z,22.358398
2019-06-07T03:04:23.438Z,22.37854
2019-06-07T03:05:23.572Z,22.348328
2019-06-07T03:06:24.798Z,22.348328
2019-06-07T03:07:24.598Z,22.328186
2019-06-07T03:08:24.564Z,22.348328
2019-06-07T03:09:24.687Z,22.348328
2019-06-07T03:10:24.889Z,22.308044
2019-06-07T03:11:24.661Z,22.308044
2019-06-07T03:12:24.856Z,22.328186
2019-06-07T03:13:25.074Z,22.308044
2019-06-07T03:14:24.910Z,22.308044
2019-06-07T03:15:35.105Z,22.308044
2019-06-07T03:16:25.085Z,22.297974
2019-06-07T03:17:25.270Z,22.308044
2019-06-07T03:18:25.335Z,22.297974
2019-06-07T03:19:25.199Z,22.287903
2019-06-07T03:20:25.840Z,22.267761
2019-06-07T03:21:25.379Z,22.267761
2019-06-07T03:22:25.421Z,22.25769
2019-06-07T03:23:24.599Z,22.25769
2019-06-07T03:24:25.992Z,22.237549
2019-06-07T03:25:24.656Z,22.237549
2019-06-07T03:26:25.775Z,22.237549
2019-06-07T03:27:46.420Z,22.227478
2019-06-07T03:28:25.986Z,22.237549
2019-06-07T03:29:25.127Z,22.207336
2019-06-07T03:30:57.753Z,22.207336
2019-06-07T03:31:25.308Z,22.207336
2019-06-07T03:32:26.495Z,22.207336
2019-06-07T03:33:25.250Z,22.197266
2019-06-07T03:34:26.401Z,22.187195
2019-06-07T03:35:25.482Z,22.187195
2019-06-07T03:36:26.411Z,22.167053
2019-06-07T03:37:25.427Z,22.187195
2019-06-07T03:38:25.669Z,22.187195
2019-06-07T03:39:25.588Z,22.167053
2019-06-07T03:40:25.605Z,22.167053
2019-06-07T03:41:25.969Z,22.146912
2019-06-07T03:42:25.607Z,22.167053
2019-06-07T03:43:25.770Z,22.146912
2019-06-07T03:44:25.845Z,22.146912
2019-06-07T03:45:25.987Z,22.136841
2019-06-07T03:46:25.809Z,22.136841
2019-06-07T03:47:25.986Z,22.116699
2019-06-07T03:48:25.863Z,22.116699
2019-06-07T03:49:26.067Z,22.116699
2019-06-07T03:50:26.175Z,22.116699
2019-06-07T03:51:27.329Z,22.136841
2019-06-07T03:52:26.015Z,22.086487
2019-06-07T03:53:26.176Z,22.106628
2019-06-07T03:54:25.999Z,22.086487
2019-06-07T03:55:26.186Z,22.086487
2019-06-07T03:56:26.252Z,22.106628
2019-06-07T03:57:26.020Z,22.086487
2019-06-07T03:58:40.940Z,22.106628
2019-06-07T03:59:26.336Z,22.076416
2019-06-07T04:00:26.522Z,22.086487
2019-06-07T04:01:26.284Z,22.076416
2019-06-07T04:02:26.415Z,22.086487
2019-06-07T04:03:35.899Z,22.086487
2019-06-07T04:04:26.311Z,22.076416
2019-06-07T04:05:26.722Z,22.086487
2019-06-07T04:06:26.790Z,22.076416
2019-06-07T04:07:26.502Z,22.076416
2019-06-07T04:08:26.765Z,22.076416
2019-06-07T04:09:26.828Z,22.056274
2019-06-07T04:10:44.592Z,22.076416
2019-06-07T04:11:26.722Z,22.046204
2019-06-07T04:12:26.862Z,22.046204
2019-06-07T04:13:27.193Z,22.046204
2019-06-07T04:14:26.814Z,22.046204
2019-06-07T04:15:26.874Z,22.046204
2019-06-07T04:16:27.064Z,22.046204
2019-06-07T04:17:27.314Z,22.046204
2019-06-07T04:18:26.987Z,22.046204
2019-06-07T04:19:27.088Z,22.036133
2019-06-07T04:20:27.239Z,22.046204
2019-06-07T04:21:27.020Z,22.036133
2019-06-07T04:22:27.210Z,22.036133
2019-06-07T04:23:28.575Z,22.015991
2019-06-07T04:24:27.125Z,22.015991
2019-06-07T04:25:27.211Z,22.036133
2019-06-07T04:26:27.394Z,22.036133
2019-06-07T04:27:27.104Z,22.046204
2019-06-07T04:29:06.833Z,22.046204
2019-06-07T04:29:55.308Z,22.036133
2019-06-07T04:30:27.335Z,22.046204
2019-06-07T04:31:27.222Z,22.036133
2019-06-07T04:32:27.189Z,22.046204
2019-06-07T04:33:27.259Z,22.046204
2019-06-07T04:34:27.404Z,22.056274
2019-06-07T04:35:27.570Z,22.046204
2019-06-07T04:36:40.239Z,22.046204
2019-06-07T04:37:27.424Z,22.046204
2019-06-07T04:38:27.568Z,22.036133
2019-06-07T04:39:27.770Z,22.046204
2019-06-07T04:40:27.793Z,22.056274
2019-06-07T04:41:27.546Z,22.046204
2019-06-07T04:42:27.761Z,22.076416
2019-06-07T04:43:27.568Z,22.056274
2019-06-07T04:44:27.590Z,22.056274
2019-06-07T04:45:36.056Z,22.086487
2019-06-07T04:46:27.609Z,22.056274
2019-06-07T04:47:27.856Z,22.056274
2019-06-07T04:48:28.109Z,22.056274
2019-06-07T04:49:27.951Z,22.076416
2019-06-07T04:50:28.011Z,22.076416
2019-06-07T04:51:27.776Z,22.056274
2019-06-07T04:52:27.880Z,22.076416
2019-06-07T04:53:28.056Z,22.076416
2019-06-07T04:54:28.154Z,22.106628
2019-06-07T04:55:27.856Z,22.086487
2019-06-07T04:56:28.144Z,22.086487
2019-06-07T04:57:28.067Z,22.086487
2019-06-07T04:58:27.801Z,22.076416
2019-06-07T05:00:03.967Z,22.106628
2019-06-07T05:00:49.533Z,22.106628
2019-06-07T05:01:29.535Z,22.106628
2019-06-07T05:02:28.149Z,22.106628
2019-06-07T05:03:28.323Z,22.086487
2019-06-07T05:04:28.887Z,22.106628
2019-06-07T05:05:28.139Z,22.116699
2019-06-07T05:06:28.269Z,22.116699
2019-06-07T05:07:28.170Z,22.136841
2019-06-07T05:08:30.310Z,22.116699
2019-06-07T05:09:28.540Z,22.116699
2019-06-07T05:10:28.609Z,22.116699
2019-06-07T05:11:28.766Z,22.116699
2019-06-07T05:12:28.541Z,22.116699
2019-06-07T05:13:28.654Z,22.136841
2019-06-07T05:14:28.718Z,22.136841
2019-06-07T05:15:28.513Z,22.136841
2019-06-07T05:16:28.702Z,22.136841
2019-06-07T05:17:28.811Z,22.146912
2019-06-07T05:18:28.545Z,22.146912
2019-06-07T05:19:28.752Z,22.146912
2019-06-07T05:20:28.570Z,22.167053
2019-06-07T05:21:48.961Z,22.167053
2019-06-07T05:22:28.778Z,22.167053
2019-06-07T05:24:02.277Z,22.187195
2019-06-07T05:24:28.759Z,22.167053
2019-06-07T05:25:29.048Z,22.167053
2019-06-07T05:26:28.784Z,22.187195
2019-06-07T05:27:28.945Z,22.207336
2019-06-07T05:28:28.840Z,22.207336
2019-06-07T05:29:29.040Z,22.227478
2019-06-07T05:30:58.353Z,22.25769
2019-06-07T05:31:29.309Z,22.237549
2019-06-07T05:32:29.814Z,22.237549
2019-06-07T05:33:29.373Z,22.237549
2019-06-07T05:34:29.653Z,22.227478
2019-06-07T05:35:29.450Z,22.237549
2019-06-07T05:36:29.702Z,22.237549
2019-06-07T05:37:29.703Z,22.25769
2019-06-07T05:38:29.837Z,22.267761
2019-06-07T05:39:30.105Z,22.267761
2019-06-07T05:40:30.016Z,22.267761
2019-06-07T05:41:30.157Z,22.287903
2019-06-07T05:42:30.468Z,22.297974
2019-06-07T05:43:30.666Z,22.308044
2019-06-07T05:44:30.443Z,22.297974
2019-06-07T05:45:30.620Z,22.328186
2019-06-07T05:46:30.820Z,22.328186
2019-06-07T05:47:30.673Z,22.328186
2019-06-07T05:48:30.736Z,22.348328
2019-06-07T05:49:30.984Z,22.37854
2019-06-07T05:50:41.272Z,22.37854
2019-06-07T05:51:30.984Z,22.37854
2019-06-07T05:52:31.265Z,22.388611
2019-06-07T05:53:31.623Z,22.388611
2019-06-07T05:54:31.564Z,22.408752
2019-06-07T05:55:31.450Z,22.408752
2019-06-07T05:56:31.680Z,22.408752
2019-06-07T05:57:32.146Z,22.418823
2019-06-07T05:58:31.700Z,22.408752
2019-06-07T05:59:31.960Z,22.438965
2019-06-07T06:00:31.938Z,22.438965
2019-06-07T06:01:57.225Z,22.438965
2019-06-07T06:02:32.136Z,22.449036
2019-06-07T06:03:32.233Z,22.449036
2019-06-07T06:04:32.297Z,22.449036
2019-06-07T06:05:35.723Z,22.459106
2019-06-07T06:06:32.499Z,22.459106
2019-06-07T06:07:32.725Z,22.479248
2019-06-07T06:08:32.791Z,22.489319
2019-06-07T06:09:32.684Z,22.479248
2019-06-07T06:10:32.764Z,22.489319
2019-06-07T06:11:44.242Z,22.489319
2019-06-07T06:12:37.103Z,22.50946
2019-06-07T06:13:33.031Z,22.519531
2019-06-07T06:14:33.328Z,22.50946
2019-06-07T06:15:45.049Z,22.539673
2019-06-07T06:16:33.382Z,22.539673
2019-06-07T06:17:34.767Z,22.519531
2019-06-07T06:18:34.511Z,22.559814
2019-06-07T06:19:34.857Z,22.539673
2019-06-07T06:20:54.355Z,22.539673
2019-06-07T06:21:34.936Z,22.559814
2019-06-07T06:22:35.212Z,22.569885
2019-06-07T06:23:35.491Z,22.559814
2019-06-07T06:24:35.433Z,22.569885
2019-06-07T06:25:35.617Z,22.590027
2019-06-07T06:26:34.776Z,22.610168
2019-06-07T06:28:05.711Z,22.610168
2019-06-07T06:28:34.504Z,22.63031
2019-06-07T06:29:35.913Z,22.640381
2019-06-07T06:30:34.705Z,22.640381
2019-06-07T06:31:35.957Z,22.660522
2019-06-07T06:32:50.612Z,22.670593
2019-06-07T06:33:36.142Z,22.670593
2019-06-07T06:34:35.629Z,22.690735
2019-06-07T06:35:36.373Z,22.700806
2019-06-07T06:36:35.696Z,22.720947
2019-06-07T06:37:35.945Z,22.700806
2019-06-07T06:38:35.799Z,22.741089
2019-06-07T06:39:35.908Z,22.76123
2019-06-07T06:40:36.629Z,22.76123
2019-06-07T06:41:46.039Z,22.781372
2019-06-07T06:42:36.234Z,22.76123
2019-06-07T06:43:36.554Z,22.791443
2019-06-07T06:44:36.650Z,22.791443
2019-06-07T06:45:36.593Z,22.821655
2019-06-07T06:46:39.387Z,22.811584
2019-06-07T06:47:36.854Z,22.821655
2019-06-07T06:48:37.154Z,22.841797
2019-06-07T06:49:37.421Z,22.851868
2019-06-07T06:50:37.277Z,22.861938
2019-06-07T06:51:37.497Z,22.892151
2019-06-07T06:52:37.776Z,22.88208
2019-06-07T06:53:37.594Z,22.932434
2019-06-07T06:54:41.737Z,22.932434
2019-06-07T06:55:37.816Z,22.932434
2019-06-07T06:56:38.090Z,22.932434
2019-06-07T06:57:37.939Z,22.942505
2019-06-07T06:59:21.300Z,22.972717
2019-06-07T06:59:39.938Z,22.992859
2019-06-07T07:00:44.410Z,22.992859
2019-06-07T07:01:38.558Z,23.00293
2019-06-07T07:03:21.070Z,23.013
2019-06-07T07:04:39.274Z,23.033142
2019-06-07T07:05:39.278Z,23.043213
2019-06-07T07:06:39.147Z,23.043213
2019-06-07T07:07:39.139Z,23.063354
2019-06-07T07:08:39.373Z,23.063354
2019-06-07T07:09:39.716Z,23.073425
2019-06-07T07:10:39.546Z,23.093567
2019-06-07T07:11:54.967Z,23.113708
2019-06-07T07:12:39.524Z,23.113708
2019-06-07T07:13:39.837Z,23.113708
2019-06-07T07:14:40.138Z,23.123779
2019-06-07T07:15:40.039Z,23.113708
2019-06-07T07:16:40.246Z,23.113708
2019-06-07T07:17:48.902Z,23.123779
2019-06-07T07:18:40.286Z,23.123779
2019-06-07T07:19:40.489Z,23.143921
2019-06-07T07:20:40.764Z,23.143921
2019-06-07T07:21:40.515Z,23.153992
2019-06-07T07:22:40.696Z,23.164062
2019-06-07T07:24:01.505Z,23.153992
2019-06-07T07:24:40.614Z,23.164062
2019-06-07T07:25:40.761Z,23.153992
2019-06-07T07:26:40.993Z,23.194275
2019-06-07T07:27:41.046Z,23.184204
2019-06-07T07:28:41.125Z,23.184204
2019-06-07T07:29:41.493Z,23.184204
2019-06-07T07:30:41.798Z,23.184204
2019-06-07T07:31:41.485Z,23.214417
2019-06-07T07:32:41.732Z,23.194275
2019-06-07T07:34:23.610Z,23.214417
2019-06-07T07:34:41.950Z,23.224487
2019-06-07T07:36:00.789Z,23.224487
2019-06-07T07:36:41.959Z,23.224487
2019-06-07T07:37:42.178Z,23.224487
2019-06-07T07:38:42.506Z,23.224487
2019-06-07T07:39:42.306Z,23.2547
2019-06-07T07:41:08.736Z,23.224487
2019-06-07T07:42:42.321Z,23.2547
2019-06-07T07:43:42.655Z,23.2547
2019-06-07T07:44:42.344Z,23.294983
2019-06-07T07:45:42.454Z,23.264771
2019-06-07T07:46:42.478Z,23.305054
2019-06-07T07:47:58.128Z,23.294983
2019-06-07T07:48:42.474Z,23.294983
2019-06-07T07:49:42.836Z,23.315125
2019-06-07T07:50:42.938Z,23.305054
2019-06-07T07:51:42.823Z,23.315125
2019-06-07T07:52:42.984Z,23.315125
2019-06-07T07:53:49.138Z,23.335266
2019-06-07T07:54:42.968Z,23.335266
2019-06-07T07:55:43.094Z,23.345337
2019-06-07T07:56:42.937Z,23.345337
2019-06-07T07:57:43.649Z,23.345337
2019-06-07T07:58:43.615Z,23.345337
2019-06-07T07:59:57.757Z,23.365479
2019-06-07T08:00:59.967Z,23.345337
2019-06-07T08:01:44.551Z,23.365479
2019-06-07T08:02:44.872Z,23.375549
2019-06-07T08:03:44.590Z,23.375549
2019-06-07T08:05:45.528Z,23.38562
2019-06-07T08:06:45.047Z,23.405762
2019-06-07T08:07:45.315Z,23.38562
2019-06-07T08:08:45.256Z,23.405762
2019-06-07T08:09:45.461Z,23.405762
2019-06-07T08:10:45.731Z,23.405762
2019-06-07T08:11:44.594Z,23.405762
2019-06-07T08:13:01.694Z,23.415833
2019-06-07T08:13:44.692Z,23.415833
2019-06-07T08:14:45.941Z,23.415833
2019-06-07T08:15:45.118Z,23.435974
2019-06-07T08:16:45.932Z,23.446045
2019-06-07T08:17:45.146Z,23.446045
2019-06-07T08:18:46.342Z,23.446045
2019-06-07T08:19:45.160Z,23.466187
2019-06-07T08:21:04.503Z,23.496399
2019-06-07T08:21:45.125Z,23.486328
2019-06-07T08:22:46.314Z,23.496399
2019-06-07T08:23:45.478Z,23.496399
2019-06-07T08:24:46.667Z,23.516541
2019-06-07T08:25:45.548Z,23.516541
2019-06-07T08:27:06.674Z,23.536682
2019-06-07T08:27:45.841Z,23.536682
2019-06-07T08:28:46.279Z,23.536682
2019-06-07T08:30:03.480Z,23.556824
2019-06-07T08:30:51.161Z,23.556824
2019-06-07T08:31:46.534Z,23.556824
2019-06-07T08:32:46.799Z,23.556824
2019-06-07T08:33:46.582Z,23.566895
2019-06-07T08:34:46.999Z,23.587036
2019-06-07T08:36:47.018Z,23.587036
2019-06-07T08:38:49.602Z,23.597107
2019-06-07T08:39:47.397Z,23.597107
2019-06-07T08:40:47.797Z,23.587036
2019-06-07T08:43:00.426Z,23.617249
2019-06-07T08:43:48.057Z,23.597107
2019-06-07T08:44:48.137Z,23.597107
2019-06-07T08:45:48.516Z,23.597107
2019-06-07T08:46:48.663Z,23.627319
2019-06-07T08:47:48.831Z,23.617249
2019-06-07T08:48:48.779Z,23.627319
2019-06-07T08:49:49.052Z,23.617249
2019-06-07T08:50:49.051Z,23.627319
2019-06-07T08:51:49.302Z,23.617249
2019-06-07T08:52:49.564Z,23.627319
2019-06-07T08:54:49.411Z,23.627319
2019-06-07T08:55:49.684Z,23.63739
2019-06-07T08:56:49.670Z,23.63739
2019-06-07T08:57:49.978Z,23.63739
2019-06-07T08:58:50.219Z,23.667603
2019-06-07T08:59:50.048Z,23.667603
2019-06-07T09:00:50.209Z,23.677673
2019-06-07T09:01:50.316Z,23.687744
2019-06-07T09:02:50.156Z,23.687744
2019-06-07T09:03:50.480Z,23.707886
2019-06-07T09:04:50.502Z,23.717957
2019-06-07T09:05:50.520Z,23.738098
2019-06-07T09:07:20.365Z,23.738098
2019-06-07T09:08:09.536Z,23.768311
2019-06-07T09:08:50.907Z,23.748169
2019-06-07T09:09:52.010Z,23.748169
2019-06-07T09:10:51.165Z,23.778381
2019-06-07T09:11:51.370Z,23.778381
2019-06-07T09:12:51.701Z,23.788452
2019-06-07T09:13:51.678Z,23.808594
2019-06-07T09:15:52.099Z,23.818665
2019-06-07T09:16:52.428Z,23.838806
2019-06-07T09:18:52.701Z,23.869019
2019-06-07T09:19:52.693Z,23.858948
2019-06-07T09:20:52.780Z,23.869019
2019-06-07T09:21:53.121Z,23.869019
2019-06-07T09:22:53.528Z,23.899231
2019-06-07T09:23:53.280Z,23.919373
2019-06-07T09:24:53.595Z,23.899231
2019-06-07T09:25:59.749Z,23.899231
2019-06-07T09:26:54.602Z,23.919373
2019-06-07T09:27:54.906Z,23.929443
2019-06-07T09:28:54.657Z,23.929443
2019-06-07T09:29:54.898Z,23.929443
2019-06-07T09:30:54.672Z,23.939514
2019-06-07T09:31:54.801Z,23.939514
2019-06-07T09:32:54.714Z,23.959656
2019-06-07T09:33:55.274Z,23.969727
2019-06-07T09:34:55.163Z,23.989868
2019-06-07T09:35:54.941Z,23.989868
2019-06-07T09:36:55.170Z,23.989868
2019-06-07T09:38:06.294Z,23.999939
2019-06-07T09:38:55.226Z,23.999939
2019-06-07T09:39:55.287Z,24.020081
2019-06-07T09:40:55.073Z,24.020081
2019-06-07T09:41:55.145Z,24.040222
2019-06-07T09:44:02.826Z,24.040222
2019-06-07T09:44:55.455Z,24.050293
2019-06-07T09:45:55.339Z,24.050293
2019-06-07T09:47:10.110Z,24.050293
2019-06-07T09:47:55.415Z,24.060364
2019-06-07T09:49:20.645Z,24.060364
2019-06-07T09:49:54.634Z,24.080505
2019-06-07T09:50:55.938Z,24.080505
2019-06-07T09:51:54.644Z,24.090576
2019-06-07T09:53:00.208Z,24.090576
2019-06-07T09:53:54.910Z,24.090576
2019-06-07T09:55:55.263Z,24.110718
2019-06-07T09:56:56.242Z,24.090576
2019-06-07T09:57:55.325Z,24.120789
2019-06-07T09:58:56.517Z,24.120789
2019-06-07T09:59:55.451Z,24.14093
2019-06-07T10:00:55.795Z,24.14093
2019-06-07T10:01:55.772Z,24.151001
2019-06-07T10:02:56.076Z,24.151001
2019-06-07T10:03:56.184Z,24.181213
2019-06-07T10:04:56.091Z,24.181213
2019-06-07T10:05:56.377Z,24.181213
2019-06-07T10:06:56.636Z,24.191284
2019-06-07T10:08:03.044Z,24.191284
2019-06-07T10:10:12.236Z,24.211426
2019-06-07T10:10:57.092Z,24.211426
2019-06-07T10:11:56.888Z,24.241638
2019-06-07T10:12:58.073Z,24.241638
2019-06-07T10:13:57.132Z,24.241638
2019-06-07T10:14:57.371Z,24.241638
2019-06-07T10:15:57.493Z,24.26178
2019-06-07T10:16:57.473Z,24.271851
2019-06-07T10:17:57.449Z,24.291992
2019-06-07T10:18:57.710Z,24.302063
2019-06-07T10:19:57.660Z,24.302063
2019-06-07T10:20:57.861Z,24.302063
2019-06-07T10:21:57.807Z,24.302063
2019-06-07T10:22:58.032Z,24.302063
2019-06-07T10:23:58.071Z,24.332275
2019-06-07T10:24:58.257Z,24.312134
2019-06-07T10:25:58.243Z,24.342346
2019-06-07T10:26:58.274Z,24.362488
2019-06-07T10:27:58.336Z,24.362488
2019-06-07T10:28:58.484Z,24.372559
2019-06-07T10:29:58.509Z,24.372559
2019-06-07T10:30:58.650Z,24.3927
2019-06-07T10:31:58.715Z,24.422913
2019-06-07T10:32:58.719Z,24.412842
2019-06-07T10:33:59.183Z,24.422913
2019-06-07T10:34:59.065Z,24.422913
2019-06-07T10:35:59.106Z,24.412842
2019-06-07T10:36:59.884Z,24.422913
2019-06-07T10:37:59.152Z,24.422913
2019-06-07T10:38:59.355Z,24.422913
2019-06-07T10:39:59.452Z,24.422913
2019-06-07T10:40:59.514Z,24.422913
2019-06-07T10:41:59.572Z,24.443054
2019-06-07T10:42:59.602Z,24.443054
2019-06-07T10:43:59.740Z,24.453125
2019-06-07T10:44:59.931Z,24.453125
2019-06-07T10:46:00.066Z,24.453125
2019-06-07T10:47:00.276Z,24.453125
2019-06-07T10:48:00.230Z,24.463196
2019-06-07T10:49:00.379Z,24.453125
2019-06-07T10:50:00.538Z,24.463196
2019-06-07T10:51:00.714Z,24.483337
2019-06-07T10:52:03.194Z,24.483337
2019-06-07T10:53:00.918Z,24.493408
2019-06-07T10:54:01.049Z,24.493408
2019-06-07T10:55:01.168Z,24.51355
2019-06-07T10:56:01.345Z,24.523621
2019-06-07T10:57:01.373Z,24.51355
2019-06-07T10:58:01.494Z,24.533691
2019-06-07T10:59:01.585Z,24.523621
2019-06-07T11:00:01.822Z,24.553833
2019-06-07T11:01:01.888Z,24.553833
2019-06-07T11:02:02.041Z,24.553833
2019-06-07T11:03:02.219Z,24.563904
2019-06-07T11:04:02.162Z,24.563904
2019-06-07T11:05:02.277Z,24.563904
2019-06-07T11:06:02.460Z,24.594116
2019-06-07T11:07:03.029Z,24.604187
2019-06-07T11:08:02.533Z,24.614258
2019-06-07T11:09:02.516Z,24.604187
2019-06-07T11:10:06.830Z,24.614258
2019-06-07T11:11:02.677Z,24.634399
2019-06-07T11:12:02.882Z,24.634399
2019-06-07T11:13:02.844Z,24.64447
2019-06-07T11:14:03.094Z,24.664612
2019-06-07T11:15:03.177Z,24.64447
2019-06-07T11:16:03.303Z,24.64447
2019-06-07T11:17:03.514Z,24.664612
2019-06-07T11:18:04.676Z,24.674683
2019-06-07T11:19:04.625Z,24.674683
2019-06-07T11:20:04.638Z,24.684753
2019-06-07T11:21:04.653Z,24.684753
2019-06-07T11:22:04.712Z,24.684753
2019-06-07T11:23:04.735Z,24.704895
2019-06-07T11:24:04.775Z,24.714966
2019-06-07T11:25:05.757Z,24.714966
2019-06-07T11:26:04.851Z,24.735107
2019-06-07T11:27:04.966Z,24.745178
2019-06-07T11:28:04.939Z,24.745178
2019-06-07T11:29:04.998Z,24.76532
2019-06-07T11:30:04.970Z,24.76532
2019-06-07T11:31:05.017Z,24.785461
2019-06-07T11:32:05.045Z,24.785461
2019-06-07T11:33:05.080Z,24.795532
2019-06-07T11:34:05.114Z,24.815674
2019-06-07T11:35:05.146Z,24.815674
2019-06-07T11:36:05.208Z,24.825745
2019-06-07T11:37:05.381Z,24.825745
2019-06-07T11:38:05.188Z,24.825745
2019-06-07T11:39:05.197Z,24.835815
2019-06-07T11:40:05.229Z,24.835815
2019-06-07T11:41:06.228Z,24.855957
2019-06-07T11:42:04.346Z,24.855957